Airfield :
LOGIN :

Register | Disclaimer

   EN    FR    IT 

 










Legend :    VFR   Marginal VFR   IFR   Intensive IFR   Very Intensive IFR
Visi :
Ceiling :
>= 8 km
>= 3000ft
5 to 8 km
1000 to 3000 ft
1500m to 5 km
500 to 1000 ft
800 to 1500m
200 to 500 ft
< 800m
< 200 ft
Symbols :   Thunderstorms  Fog  Heavy snow  Heavy precipitations  Wind > 20 kt
SIGMETs :     Misc.  Thunderstorms  Icing  Turbulence  Mountain Waves  Volcanic Ashes






- Airport Elevation : 863 ft
- IATA code : ZAZ


LEZG - Zaragoza Aragon

CURRENT METAR :
  • 160630Z 29010KT 260V320 9999 FEW050 07/01 Q1018

EXPIRED METARs :
  • 160600Z 28008KT 250V310 9999 SCT050 06/01 Q1018
  • 160530Z 30012KT 9999 SCT050 06/00 Q1018
  • 160500Z 29010KT 9999 FEW050 06/00 Q1018
  • 160430Z 29012KT 270V330 9999 FEW040 06/00 Q1017
  • 160400Z 30015KT 9999 FEW040 06/00 Q1017

TAF TAF LEZG
Valid from the 16 at 06:00 until the 17 at 06:00 UTC


160500Z 1606/1706 31012KT 9999 FEW020 TX17/1614Z TN06/1606Z
BECMG 1607/1609 32022KT
TEMPO 1607/1621 32022G32KT
BECMG 1620/1622 32012KT



MET'MAP, your aeronautical weather chart ! - Copyright ORBIFLY December 2007 - Disclaimer

ORBIFLY MET'MAP TEAM :

Programming & Development : Alexandra Zaïnal
Concept & original design : Baudouin d'Aumeries
Assistance for programming : Marc-Olivier Méhu
Technical & hardware support : Manuel Goepfert

Contact : metmap@orbifly.com




SOURCES & CREDITS :

   NOAA